Time;durP1;ratioP1;P1;durP2;ratioP2;P2;SDS_P1;SDS_P2;PMS_P1;PMS_P2;Temp;Humidity;BMP_temperature;BMP_pressure;BME280_temperature;BME280_humidity;BME280_pressure;Samples;Min_cycle;Max_cycle;Signal;HPM_P1;HPM_P2
2022/08/16 00:00:39;;;;;;;1.77;0.90;;;14.10;93.70;;;;;;4974224;28;20769;-71
2022/08/16 00:03:08;;;;;;;1.27;1.17;;;14.20;93.70;;;;;;4975859;28;20104;-71
2022/08/16 00:05:36;;;;;;;1.10;0.80;;;14.20;93.70;;;;;;4967975;28;20022;-72
2022/08/16 00:08:04;;;;;;;1.65;0.90;;;14.20;93.80;;;;;;4971731;28;20061;-71
2022/08/16 00:10:34;;;;;;;2.15;0.85;;;14.30;93.50;;;;;;4971141;28;20061;-72
2022/08/16 00:13:05;;;;;;;0.68;0.57;;;14.30;93.00;;;;;;4976704;28;20022;-73
2022/08/16 00:15:40;;;;;;;1.33;0.68;;;14.50;93.00;;;;;;4992541;28;20034;-72
2022/08/16 00:18:09;;;;;;;5.72;1.42;;;14.50;92.70;;;;;;4974523;28;20026;-73
2022/08/16 00:20:39;;;;;;;1.48;0.60;;;14.50;92.50;;;;;;4974635;28;20034;-72
2022/08/16 00:23:07;;;;;;;0.95;0.50;;;14.60;92.60;;;;;;4973896;28;20048;-73
2022/08/16 00:25:34;;;;;;;3.83;0.60;;;14.70;92.30;;;;;;4981538;28;20022;-73
2022/08/16 00:28:03;;;;;;;0.85;0.50;;;14.80;92.00;;;;;;4974208;28;20034;-70
2022/08/16 00:30:30;;;;;;;2.80;0.50;;;14.80;91.70;;;;;;4974571;28;20059;-72
2022/08/16 00:33:00;;;;;;;1.80;0.60;;;14.90;91.50;;;;;;4975076;28;20026;-70
2022/08/16 00:35:34;;;;;;;2.90;0.50;;;14.90;91.50;;;;;;4974959;28;20038;-70
2022/08/16 00:38:03;;;;;;;1.75;0.60;;;14.90;91.40;;;;;;4957727;28;20081;-72
2022/08/16 00:40:47;;;;;;;1.58;0.60;;;15.00;91.60;;;;;;4947708;28;20622;-71
2022/08/16 00:43:27;;;;;;;1.35;0.60;;;15.00;91.20;;;;;;4963874;28;21008;-72
2022/08/16 00:46:21;;;;;;;1.02;0.73;;;15.10;91.00;;;;;;4958764;28;20411;-74
2022/08/16 00:48:50;;;;;;;0.50;0.50;;;15.10;91.20;;;;;;4971868;28;20037;-74
2022/08/16 00:51:19;;;;;;;2.40;0.60;;;15.30;91.20;;;;;;4971937;28;20070;-73
2022/08/16 00:53:48;;;;;;;1.85;0.50;;;15.40;90.40;;;;;;4971410;28;20026;-74
2022/08/16 00:56:21;;;;;;;3.17;0.70;;;15.50;90.00;;;;;;4972204;28;20092;-75
2022/08/16 00:58:49;;;;;;;0.82;0.52;;;15.50;90.20;;;;;;4971741;28;20042;-73
2022/08/16 01:01:18;;;;;;;0.70;0.60;;;15.50;89.60;;;;;;4971864;28;20102;-75
2022/08/16 01:03:50;;;;;;;0.80;0.50;;;15.70;90.10;;;;;;4972425;28;20033;-71
2022/08/16 01:06:20;;;;;;;0.70;0.47;;;15.70;89.40;;;;;;4974245;28;20030;-73
2022/08/16 01:08:51;;;;;;;0.50;0.40;;;15.80;88.60;;;;;;4974162;28;20030;-73
2022/08/16 01:11:19;;;;;;;1.58;0.50;;;15.90;88.70;;;;;;4973489;28;20399;-71
2022/08/16 01:13:48;;;;;;;0.75;0.50;;;15.80;88.70;;;;;;4974327;28;20022;-71
2022/08/16 01:16:28;;;;;;;1.42;0.40;;;16.00;89.20;;;;;;4976797;28;20042;-73
2022/08/16 01:19:01;;;;;;;2.08;0.47;;;16.00;88.60;;;;;;4973947;28;20046;-73
2022/08/16 01:22:00;;;;;;;0.85;0.50;;;16.00;88.40;;;;;;4974804;28;20073;-70
2022/08/16 01:24:44;;;;;;;2.53;1.23;;;16.00;88.50;;;;;;4976402;28;20057;-74
2022/08/16 01:27:23;;;;;;;0.85;0.60;;;16.10;88.10;;;;;;4977428;28;20030;-72
2022/08/16 01:30:09;;;;;;;1.23;0.73;;;16.30;88.20;;;;;;4975836;28;20023;-71
2022/08/16 01:32:41;;;;;;;1.75;0.77;;;16.40;87.80;;;;;;4975170;28;20107;-72
2022/08/16 01:35:23;;;;;;;0.50;0.50;;;16.50;88.20;;;;;;4974621;28;20022;-73
2022/08/16 01:37:53;;;;;;;0.40;0.40;;;16.60;86.70;;;;;;4991850;28;20033;-75
2022/08/16 01:40:24;;;;;;;1.77;0.60;;;16.70;85.60;;;;;;4974751;28;20108;-73
2022/08/16 01:42:52;;;;;;;0.90;0.35;;;16.70;86.40;;;;;;4975549;28;20042;-71
2022/08/16 01:45:20;;;;;;;0.70;0.52;;;16.80;85.60;;;;;;4973455;28;20395;-71
2022/08/16 01:47:51;;;;;;;1.05;0.52;;;16.80;86.00;;;;;;4975947;28;20026;-73
2022/08/16 01:50:20;;;;;;;1.42;0.60;;;17.00;86.20;;;;;;4976947;28;20367;-74
2022/08/16 01:52:48;;;;;;;3.78;1.05;;;17.20;85.20;;;;;;4975198;28;20030;-75
2022/08/16 01:55:17;;;;;;;1.60;0.47;;;17.50;84.20;;;;;;4974988;28;20018;-71
2022/08/16 01:57:45;;;;;;;1.58;0.57;;;17.70;83.60;;;;;;4974692;28;20050;-70
2022/08/16 02:00:14;;;;;;;1.63;0.50;;;18.00;81.90;;;;;;4974230;28;20027;-71
2022/08/16 02:02:42;;;;;;;0.40;0.40;;;18.10;80.70;;;;;;4976116;28;20121;-70
2022/08/16 02:05:11;;;;;;;0.43;0.40;;;18.20;80.10;;;;;;4972569;28;20041;-72
2022/08/16 02:07:39;;;;;;;1.15;0.50;;;18.30;80.00;;;;;;4974127;28;20030;-71
2022/08/16 02:10:08;;;;;;;2.78;0.82;;;18.40;79.90;;;;;;4977378;28;20571;-71
2022/08/16 02:12:35;;;;;;;1.02;0.52;;;18.50;80.00;;;;;;4976756;28;20027;-70
2022/08/16 02:15:03;;;;;;;1.23;0.40;;;18.60;78.30;;;;;;4983612;28;20715;-71
2022/08/16 02:17:31;;;;;;;0.50;0.40;;;18.90;76.90;;;;;;4973964;28;20097;-72
2022/08/16 02:19:58;;;;;;;0.65;0.40;;;19.00;73.80;;;;;;4976326;28;20011;-71
2022/08/16 02:22:25;;;;;;;0.98;0.40;;;19.20;74.10;;;;;;4976595;28;20033;-73
2022/08/16 02:24:53;;;;;;;0.65;0.60;;;19.40;73.90;;;;;;4976631;28;20392;-73
2022/08/16 02:27:21;;;;;;;1.73;0.80;;;19.60;73.40;;;;;;4977124;28;20653;-74
2022/08/16 02:29:48;;;;;;;2.63;1.00;;;19.70;73.00;;;;;;4976933;28;20733;-73
2022/08/16 02:32:17;;;;;;;3.90;0.80;;;19.90;72.40;;;;;;4976587;28;20202;-73
2022/08/16 02:34:45;;;;;;;1.08;0.50;;;19.90;72.20;;;;;;4976365;28;20823;-75
2022/08/16 02:37:12;;;;;;;1.98;0.40;;;20.00;71.60;;;;;;4992131;28;20022;-71
2022/08/16 02:39:39;;;;;;;0.55;0.50;;;20.10;70.90;;;;;;4987747;28;20022;-71
2022/08/16 02:42:06;;;;;;;9.48;1.20;;;20.10;69.50;;;;;;4977149;28;20080;-72
2022/08/16 02:44:34;;;;;;;1.88;0.40;;;20.20;69.10;;;;;;4965663;28;20667;-72
2022/08/16 02:47:01;;;;;;;1.75;0.50;;;20.50;68.50;;;;;;4977237;28;20073;-72
2022/08/16 02:49:28;;;;;;;0.77;0.30;;;20.80;68.10;;;;;;4976559;28;20022;-76
2022/08/16 02:51:56;;;;;;;0.60;0.40;;;21.20;66.60;;;;;;4989930;28;20033;-73
2022/08/16 02:54:23;;;;;;;1.55;0.30;;;21.60;66.30;;;;;;4996021;28;20100;-72
2022/08/16 02:56:50;;;;;;;0.47;0.30;;;22.10;65.70;;;;;;4977113;28;20491;-74
2022/08/16 02:59:18;;;;;;;0.70;0.47;;;22.50;63.80;;;;;;4976917;28;20038;-74
2022/08/16 03:01:45;;;;;;;0.30;0.30;;;22.90;64.00;;;;;;4975711;28;20038;-71
2022/08/16 03:04:12;;;;;;;0.57;0.50;;;23.10;62.90;;;;;;4982848;28;20025;-72
2022/08/16 03:06:42;;;;;;;1.85;0.50;;;23.20;62.60;;;;;;4974597;28;20026;-73
2022/08/16 03:09:10;;;;;;;1.23;0.40;;;23.50;61.50;;;;;;4976304;28;20018;-74
2022/08/16 03:11:38;;;;;;;1.55;0.40;;;23.80;60.50;;;;;;4974593;28;20125;-72
2022/08/16 03:14:05;;;;;;;0.65;0.32;;;24.00;60.40;;;;;;4975560;28;20022;-70
2022/08/16 03:16:32;;;;;;;1.17;0.40;;;24.20;62.20;;;;;;4978564;28;20026;-71
2022/08/16 03:18:59;;;;;;;3.30;0.60;;;24.80;59.20;;;;;;4976019;28;20018;-71
2022/08/16 03:21:28;;;;;;;0.30;0.30;;;24.70;58.10;;;;;;4975877;28;20649;-72
2022/08/16 03:23:55;;;;;;;2.85;0.20;;;24.30;58.00;;;;;;4975600;28;20054;-71
2022/08/16 03:26:23;;;;;;;1.88;0.50;;;23.60;58.40;;;;;;4976313;28;20026;-72
2022/08/16 03:28:50;;;;;;;1.60;0.50;;;22.70;59.00;;;;;;4985276;28;20086;-70
2022/08/16 03:31:18;;;;;;;1.38;0.40;;;22.00;61.20;;;;;;4977200;28;20034;-73
2022/08/16 03:33:45;;;;;;;2.33;0.50;;;21.60;61.50;;;;;;4974682;28;20027;-74
2022/08/16 03:36:12;;;;;;;0.80;0.40;;;21.30;61.30;;;;;;4975713;28;20023;-74
2022/08/16 03:38:40;;;;;;;0.40;0.30;;;20.90;62.40;;;;;;4973814;28;20841;-72
2022/08/16 03:41:08;;;;;;;0.40;0.40;;;21.00;62.40;;;;;;4986104;28;20133;-72
2022/08/16 03:43:37;;;;;;;1.33;0.60;;;21.50;61.70;;;;;;4973883;28;20023;-74
2022/08/16 03:46:04;;;;;;;0.88;0.50;;;22.00;61.00;;;;;;4989261;28;20434;-73
2022/08/16 03:48:35;;;;;;;0.40;0.40;;;22.20;60.10;;;;;;4973698;28;20547;-74
2022/08/16 03:51:05;;;;;;;0.35;0.30;;;22.10;60.40;;;;;;4974063;28;20105;-73
2022/08/16 03:53:32;;;;;;;0.85;0.32;;;22.10;60.00;;;;;;4972694;28;20026;-75
2022/08/16 03:55:59;;;;;;;2.38;0.40;;;22.00;60.30;;;;;;4973583;28;20081;-73
2022/08/16 03:58:28;;;;;;;1.85;0.50;;;22.40;59.80;;;;;;4975923;28;20069;-73
2022/08/16 04:00:55;;;;;;;2.15;0.38;;;23.10;59.80;;;;;;4973831;28;20026;-73
2022/08/16 04:03:23;;;;;;;0.85;0.30;;;24.00;58.10;;;;;;4974663;28;20103;-73
2022/08/16 04:05:50;;;;;;;1.27;0.40;;;24.90;57.50;;;;;;4973706;28;20106;-71
2022/08/16 04:08:22;;;;;;;0.30;0.30;;;25.60;55.70;;;;;;4975536;28;20041;-69
2022/08/16 04:10:51;;;;;;;1.08;0.30;;;25.40;54.90;;;;;;4972769;28;20104;-73
2022/08/16 04:13:19;;;;;;;0.70;0.40;;;25.40;55.60;;;;;;4975622;28;20058;-73
2022/08/16 04:15:46;;;;;;;2.28;0.40;;;25.40;54.50;;;;;;4978317;28;20510;-72
2022/08/16 04:18:15;;;;;;;0.70;0.35;;;25.20;54.50;;;;;;4977964;28;20034;-73
2022/08/16 04:20:42;;;;;;;0.82;0.32;;;25.00;54.80;;;;;;4975123;28;20076;-74
2022/08/16 04:23:10;;;;;;;0.85;0.40;;;24.60;55.40;;;;;;4973876;28;20375;-72
2022/08/16 04:25:37;;;;;;;0.35;0.30;;;24.70;55.10;;;;;;4975166;28;20054;-73
2022/08/16 04:28:05;;;;;;;0.60;0.35;;;24.80;54.30;;;;;;4978234;28;20105;-71
2022/08/16 04:30:32;;;;;;;0.73;0.30;;;25.10;55.10;;;;;;4995715;28;20033;-72
2022/08/16 04:33:00;;;;;;;0.95;0.30;;;25.20;54.90;;;;;;4979348;28;20025;-72
2022/08/16 04:35:27;;;;;;;0.40;0.30;;;25.50;53.90;;;;;;4974233;28;20507;-72
2022/08/16 04:37:54;;;;;;;3.60;0.55;;;25.70;53.70;;;;;;4971700;28;20022;-71
2022/08/16 04:40:23;;;;;;;0.95;0.35;;;25.90;53.30;;;;;;4978714;28;20501;-72
2022/08/16 04:42:51;;;;;;;1.30;0.30;;;26.00;53.00;;;;;;4976825;28;20100;-70
2022/08/16 04:45:19;;;;;;;2.28;0.40;;;26.10;52.90;;;;;;4971622;28;20030;-72
2022/08/16 04:47:47;;;;;;;0.65;0.30;;;26.40;52.80;;;;;;4977282;28;20115;-72
2022/08/16 04:50:21;;;;;;;1.30;0.40;;;26.30;52.00;;;;;;4976713;28;20113;-69
2022/08/16 04:52:50;;;;;;;1.40;0.50;;;26.00;52.40;;;;;;4980572;28;20217;-69
2022/08/16 04:55:21;;;;;;;0.38;0.30;;;25.90;52.40;;;;;;4976818;28;20487;-69
2022/08/16 04:57:51;;;;;;;1.55;0.30;;;26.10;52.10;;;;;;4979186;28;20058;-72
2022/08/16 05:00:23;;;;;;;1.67;0.47;;;26.20;52.60;;;;;;4977423;28;20048;-72
2022/08/16 05:02:52;;;;;;;1.75;0.40;;;26.50;51.90;;;;;;4978040;28;20033;-72
2022/08/16 05:05:20;;;;;;;0.98;0.40;;;26.80;52.00;;;;;;4977849;28;20026;-71
2022/08/16 05:07:48;;;;;;;0.38;0.30;;;26.90;52.00;;;;;;4978250;28;20130;-70
2022/08/16 05:10:16;;;;;;;2.72;0.30;;;26.90;51.60;;;;;;4975648;28;20026;-71
2022/08/16 05:12:43;;;;;;;1.52;0.30;;;27.10;51.40;;;;;;4978300;28;20114;-71
2022/08/16 05:15:11;;;;;;;0.82;0.40;;;27.00;52.60;;;;;;4974545;28;20030;-70
2022/08/16 05:17:38;;;;;;;0.80;0.40;;;27.10;52.60;;;;;;4977595;28;20105;-70
2022/08/16 05:20:08;;;;;;;2.50;0.38;;;27.30;51.10;;;;;;4979240;28;20031;-73
2022/08/16 05:22:37;;;;;;;1.10;0.40;;;26.90;51.80;;;;;;4978504;28;20033;-74
2022/08/16 05:25:06;;;;;;;2.70;0.30;;;26.80;51.50;;;;;;4978204;28;20030;-71
2022/08/16 05:27:33;;;;;;;0.70;0.30;;;26.40;51.60;;;;;;4975882;28;20039;-76
2022/08/16 05:30:01;;;;;;;4.00;0.43;;;25.60;52.70;;;;;;4989021;28;20030;-69
2022/08/16 05:32:29;;;;;;;2.80;0.40;;;24.70;53.70;;;;;;4976863;28;20023;-76
2022/08/16 05:34:57;;;;;;;1.85;0.30;;;24.60;53.40;;;;;;4979682;28;20029;-73
2022/08/16 05:37:24;;;;;;;1.20;0.50;;;24.60;54.10;;;;;;4977370;28;20037;-71
2022/08/16 05:39:51;;;;;;;1.33;0.50;;;25.10;53.80;;;;;;4979519;28;20022;-71
2022/08/16 05:42:19;;;;;;;1.67;0.43;;;25.60;52.70;;;;;;4975578;28;20026;-72
2022/08/16 05:44:46;;;;;;;1.17;0.40;;;26.10;51.90;;;;;;4983220;28;20022;-71
2022/08/16 05:47:14;;;;;;;0.35;0.20;;;26.40;52.00;;;;;;4977848;28;20027;-72
2022/08/16 05:49:41;;;;;;;1.63;0.30;;;26.80;51.80;;;;;;4978083;28;20025;-72
2022/08/16 05:52:12;;;;;;;0.75;0.30;;;26.90;51.20;;;;;;4978942;28;20662;-71
2022/08/16 05:54:41;;;;;;;1.70;0.40;;;26.70;50.70;;;;;;4977226;28;20022;-71
2022/08/16 05:57:12;;;;;;;0.65;0.30;;;25.90;52.00;;;;;;4976899;28;20522;-73
2022/08/16 05:59:40;;;;;;;1.20;0.40;;;25.20;52.70;;;;;;4976314;28;20091;-72
2022/08/16 06:02:07;;;;;;;1.25;0.35;;;24.50;53.80;;;;;;4976905;28;20033;-71
2022/08/16 06:04:35;;;;;;;3.38;0.68;;;24.50;54.20;;;;;;4974328;28;20109;-77
2022/08/16 06:07:04;;;;;;;1.23;0.47;;;24.90;54.00;;;;;;4981370;28;20054;-75
2022/08/16 06:09:32;;;;;;;1.80;0.47;;;25.00;53.20;;;;;;4975630;28;20042;-72
2022/08/16 06:12:00;;;;;;;0.73;0.30;;;24.50;54.20;;;;;;4979011;28;20033;-70
2022/08/16 06:14:29;;;;;;;1.58;0.30;;;23.90;54.20;;;;;;4956270;28;20042;-70
2022/08/16 06:16:56;;;;;;;1.42;0.50;;;23.10;55.30;;;;;;4972516;28;20471;-72
2022/08/16 06:19:24;;;;;;;0.40;0.30;;;22.30;56.90;;;;;;4975781;28;20018;-72
2022/08/16 06:21:51;;;;;;;0.90;0.38;;;21.90;57.90;;;;;;4979218;28;20030;-73
2022/08/16 06:24:18;;;;;;;2.58;0.60;;;21.40;58.20;;;;;;4977778;28;20026;-75
2022/08/16 06:26:45;;;;;;;0.75;0.38;;;21.00;59.20;;;;;;4976849;28;20070;-74
2022/08/16 06:29:13;;;;;;;1.27;0.50;;;20.60;59.80;;;;;;4980872;28;20371;-75
2022/08/16 06:31:41;;;;;;;1.63;0.40;;;20.20;60.50;;;;;;4998173;28;20518;-71
2022/08/16 06:34:08;;;;;;;3.65;0.60;;;19.90;61.00;;;;;;4978016;28;20033;-72
2022/08/16 06:36:36;;;;;;;0.50;0.40;;;19.80;61.90;;;;;;4974827;28;20026;-71
2022/08/16 06:39:03;;;;;;;2.15;0.60;;;19.80;62.30;;;;;;4978165;28;20026;-70
2022/08/16 06:41:30;;;;;;;4.20;1.80;;;19.90;63.10;;;;;;4978365;28;20022;-71
2022/08/16 06:43:58;;;;;;;2.85;1.17;;;20.10;64.80;;;;;;4977490;28;20026;-71
2022/08/16 06:46:32;;;;;;;2.53;0.80;;;20.30;65.40;;;;;;4975378;28;20365;-70
2022/08/16 06:49:08;;;;;;;5.72;2.03;;;20.50;64.20;;;;;;4976258;28;20106;-72
2022/08/16 06:51:37;;;;;;;5.20;1.23;;;20.60;64.10;;;;;;4974316;28;20483;-71
2022/08/16 06:54:05;;;;;;;4.05;1.38;;;20.50;63.00;;;;;;4984839;28;20030;-72
2022/08/16 06:56:34;;;;;;;1.85;0.60;;;20.30;61.90;;;;;;4980201;28;20040;-75
2022/08/16 06:59:02;;;;;;;1.67;0.40;;;20.00;62.20;;;;;;4977106;28;20053;-78
2022/08/16 07:01:29;;;;;;;1.80;0.47;;;19.70;62.30;;;;;;4974992;28;20034;-70
2022/08/16 07:03:56;;;;;;;0.98;0.40;;;19.50;62.80;;;;;;4978081;28;20026;-74
2022/08/16 07:06:25;;;;;;;3.97;0.50;;;19.20;63.90;;;;;;4987823;28;20022;-75
2022/08/16 07:08:52;;;;;;;2.05;0.70;;;19.00;64.40;;;;;;4974913;28;20137;-72
2022/08/16 07:11:20;;;;;;;1.65;0.60;;;18.90;64.40;;;;;;4976968;28;20030;-75
2022/08/16 07:13:49;;;;;;;2.80;0.98;;;18.70;64.90;;;;;;4974633;28;20029;-72
2022/08/16 07:16:17;;;;;;;4.88;0.70;;;18.60;65.30;;;;;;4991230;28;20121;-71
2022/08/16 07:18:45;;;;;;;3.92;0.88;;;18.50;66.00;;;;;;4986286;28;20211;-69
2022/08/16 07:21:14;;;;;;;4.07;1.15;;;18.40;68.10;;;;;;4988772;28;20023;-73
2022/08/16 07:23:44;;;;;;;3.63;1.00;;;18.30;68.50;;;;;;4977062;28;20607;-69
2022/08/16 07:26:19;;;;;;;4.20;1.67;;;18.30;71.00;;;;;;4976302;28;20050;-70
2022/08/16 07:28:47;;;;;;;5.82;1.30;;;18.20;71.60;;;;;;4974566;28;20179;-68
2022/08/16 07:31:15;;;;;;;3.47;1.27;;;18.10;73.50;;;;;;4982745;28;20027;-70
2022/08/16 07:33:43;;;;;;;3.47;0.82;;;18.00;75.60;;;;;;4975987;28;20426;-69
2022/08/16 07:36:12;;;;;;;3.85;1.30;;;17.90;77.30;;;;;;4975374;28;20034;-69
2022/08/16 07:38:40;;;;;;;2.72;0.88;;;17.70;78.30;;;;;;4975488;28;20061;-73
2022/08/16 07:41:08;;;;;;;4.35;1.33;;;17.60;79.30;;;;;;4974076;28;20054;-74
2022/08/16 07:43:36;;;;;;;4.70;1.20;;;17.40;80.50;;;;;;4984866;28;20025;-72
2022/08/16 07:46:03;;;;;;;7.35;1.70;;;17.40;81.10;;;;;;4974616;28;20491;-71
2022/08/16 07:48:30;;;;;;;4.20;1.90;;;17.30;81.90;;;;;;4976451;28;20022;-74
2022/08/16 07:50:58;;;;;;;3.97;1.33;;;17.20;82.20;;;;;;4975874;28;20038;-74
2022/08/16 07:53:29;;;;;;;3.97;1.73;;;17.10;82.90;;;;;;4975324;28;20037;-73
2022/08/16 07:55:59;;;;;;;5.00;1.52;;;17.00;83.10;;;;;;4978579;28;20034;-73
2022/08/16 07:58:28;;;;;;;6.05;1.83;;;17.00;83.80;;;;;;4974681;28;20243;-74
2022/08/16 08:00:56;;;;;;;6.30;2.70;;;16.90;84.10;;;;;;4975499;28;20022;-76
2022/08/16 08:03:24;;;;;;;9.00;3.28;;;16.80;84.30;;;;;;4972867;28;20018;-73
2022/08/16 08:05:51;;;;;;;11.32;3.35;;;16.70;84.50;;;;;;4975244;28;20070;-73
2022/08/16 08:08:19;;;;;;;10.20;3.30;;;16.70;84.70;;;;;;4967755;28;20065;-70
2022/08/16 08:10:46;;;;;;;3.85;2.03;;;16.60;85.00;;;;;;4974916;28;20708;-72
2022/08/16 08:13:15;;;;;;;6.03;1.67;;;16.50;85.10;;;;;;4968741;28;20022;-68
2022/08/16 08:15:44;;;;;;;7.00;2.28;;;16.50;85.60;;;;;;4967429;28;20038;-68
2022/08/16 08:18:12;;;;;;;6.20;2.85;;;16.40;85.60;;;;;;4973276;28;20022;-71
2022/08/16 08:20:43;;;;;;;10.27;4.10;;;16.30;85.90;;;;;;4975563;28;20034;-72
2022/08/16 08:23:14;;;;;;;9.80;5.03;;;16.30;86.60;;;;;;4973986;28;20181;-72
2022/08/16 08:25:44;;;;;;;45.67;38.53;;;16.30;86.90;;;;;;4974511;28;20458;-71
2022/08/16 08:28:12;;;;;;;42.67;36.58;;;16.30;86.40;;;;;;4972975;28;20050;-71
2022/08/16 08:30:40;;;;;;;8.75;5.88;;;16.20;86.80;;;;;;4974775;28;20051;-71
2022/08/16 08:33:07;;;;;;;5.28;3.20;;;16.30;86.70;;;;;;4973065;28;20065;-72
2022/08/16 08:35:35;;;;;;;7.63;2.28;;;16.20;87.20;;;;;;4975512;28;20026;-77
2022/08/16 08:38:07;;;;;;;7.97;2.97;;;16.20;87.30;;;;;;4974549;28;20026;-77
2022/08/16 08:40:34;;;;;;;6.22;2.67;;;16.10;87.30;;;;;;4975657;28;20018;-76
2022/08/16 08:43:03;;;;;;;8.63;3.05;;;16.00;87.40;;;;;;4975240;28;20030;-71
2022/08/16 08:45:31;;;;;;;5.47;3.00;;;16.00;87.90;;;;;;4975247;28;20506;-75
2022/08/16 08:47:58;;;;;;;8.50;3.53;;;16.00;88.10;;;;;;4975930;28;20034;-73
2022/08/16 08:50:25;;;;;;;7.85;5.55;;;15.90;88.70;;;;;;4974762;28;20065;-74
2022/08/16 08:52:53;;;;;;;10.88;9.30;;;15.90;89.30;;;;;;4975546;28;20087;-75
2022/08/16 08:55:21;;;;;;;7.95;6.47;;;15.80;89.90;;;;;;4974162;28;20027;-76
2022/08/16 08:57:51;;;;;;;5.55;3.80;;;15.70;90.20;;;;;;4974344;28;20042;-77
2022/08/16 09:00:22;;;;;;;10.50;5.65;;;15.70;89.90;;;;;;4974817;28;20145;-73
2022/08/16 09:02:53;;;;;;;10.02;7.57;;;15.60;90.00;;;;;;4975463;28;20026;-75
2022/08/16 09:05:24;;;;;;;7.55;4.28;;;15.60;90.10;;;;;;4974610;28;20030;-74
2022/08/16 09:07:53;;;;;;;17.73;12.18;;;15.50;90.30;;;;;;5006194;28;20038;-78
2022/08/16 09:10:21;;;;;;;14.65;10.15;;;15.50;90.20;;;;;;4974138;28;20034;-78
2022/08/16 09:12:49;;;;;;;7.03;3.28;;;15.50;90.10;;;;;;4967766;28;20106;-77
2022/08/16 09:15:17;;;;;;;7.75;4.28;;;15.50;89.90;;;;;;4972734;28;20685;-75
2022/08/16 09:17:44;;;;;;;7.53;5.50;;;15.40;90.10;;;;;;4974390;28;20053;-75
2022/08/16 09:20:13;;;;;;;5.25;2.67;;;15.30;89.60;;;;;;4975310;28;20486;-76
2022/08/16 09:22:42;;;;;;;7.40;4.15;;;15.30;89.80;;;;;;4975429;28;20023;-73
2022/08/16 09:25:10;;;;;;;9.35;3.17;;;15.20;89.80;;;;;;4974917;28;20014;-76
2022/08/16 09:27:38;;;;;;;5.13;2.72;;;15.10;90.00;;;;;;4974036;28;20022;-75
2022/08/16 09:30:07;;;;;;;5.35;2.75;;;15.10;90.10;;;;;;4975192;28;20796;-75
2022/08/16 09:32:34;;;;;;;5.82;2.72;;;15.00;89.90;;;;;;4975206;28;20077;-71
2022/08/16 09:35:03;;;;;;;8.25;5.47;;;14.90;89.80;;;;;;4979185;28;20057;-73
2022/08/16 09:37:32;;;;;;;5.20;2.63;;;14.90;89.90;;;;;;4978099;28;20033;-76
2022/08/16 09:40:00;;;;;;;5.10;2.58;;;14.80;89.80;;;;;;4981887;28;20046;-77
2022/08/16 09:42:28;;;;;;;5.95;3.17;;;14.80;90.10;;;;;;4974924;28;20031;-71
2022/08/16 09:44:57;;;;;;;5.25;2.05;;;14.70;89.70;;;;;;4977775;28;20053;-73
2022/08/16 09:47:24;;;;;;;5.82;2.65;;;14.70;89.50;;;;;;4977150;28;20487;-74
2022/08/16 09:49:51;;;;;;;6.85;2.75;;;14.70;89.40;;;;;;4978603;28;20484;-74
2022/08/16 09:52:19;;;;;;;6.05;3.00;;;14.70;89.50;;;;;;4978364;28;20023;-73
2022/08/16 09:54:46;;;;;;;5.18;2.67;;;14.80;89.50;;;;;;4978631;28;20042;-79
2022/08/16 09:57:13;;;;;;;4.30;2.47;;;14.70;90.10;;;;;;4972150;28;20618;-75
2022/08/16 09:59:41;;;;;;;4.45;2.28;;;14.70;89.20;;;;;;4977103;28;20026;-78
2022/08/16 10:02:11;;;;;;;3.85;1.65;;;14.70;89.10;;;;;;4978739;28;20076;-76
2022/08/16 10:04:38;;;;;;;2.70;2.05;;;14.70;89.20;;;;;;4977031;28;20026;-76
2022/08/16 10:07:06;;;;;;;2.92;1.13;;;14.80;89.20;;;;;;4979297;28;20030;-76
2022/08/16 10:09:33;;;;;;;4.47;1.50;;;14.70;89.00;;;;;;4976809;28;20018;-75
2022/08/16 10:14:46;;;;;;;3.85;1.48;;;14.70;89.10;;;;;;4977601;28;20462;-72
2022/08/16 10:17:13;;;;;;;1.83;1.10;;;14.60;89.20;;;;;;4977386;28;20391;-72
2022/08/16 10:19:41;;;;;;;3.38;1.30;;;14.60;89.10;;;;;;4977261;28;20420;-75
2022/08/16 10:22:09;;;;;;;2.53;1.00;;;14.60;89.20;;;;;;4978761;28;20026;-73
2022/08/16 10:24:36;;;;;;;2.88;1.85;;;14.50;89.70;;;;;;4977357;28;20050;-72
2022/08/16 10:27:04;;;;;;;3.85;1.42;;;14.50;89.80;;;;;;4978173;28;20022;-71
2022/08/16 10:29:31;;;;;;;1.63;0.90;;;14.40;89.30;;;;;;4976807;28;20057;-76
2022/08/16 10:31:59;;;;;;;4.65;3.15;;;14.40;89.60;;;;;;4977927;28;20030;-73
2022/08/16 10:34:26;;;;;;;2.85;0.93;;;14.30;89.80;;;;;;4977974;28;20022;-72
2022/08/16 10:36:54;;;;;;;2.15;1.23;;;14.20;89.80;;;;;;4977390;28;20065;-73
2022/08/16 10:39:21;;;;;;;2.53;0.93;;;14.20;89.90;;;;;;4977301;28;20440;-75
2022/08/16 10:41:48;;;;;;;2.25;0.88;;;14.20;90.20;;;;;;4977620;28;20034;-72
2022/08/16 10:44:16;;;;;;;3.67;0.93;;;14.10;90.20;;;;;;4977942;28;20030;-75
2022/08/16 10:46:43;;;;;;;2.65;1.73;;;14.10;90.40;;;;;;4976719;28;20080;-73
2022/08/16 10:49:12;;;;;;;3.45;1.58;;;14.00;90.50;;;;;;4978088;28;20037;-73
2022/08/16 10:51:40;;;;;;;1.70;1.00;;;14.00;90.60;;;;;;4974562;28;20893;-74
2022/08/16 10:54:08;;;;;;;2.70;1.10;;;13.90;90.60;;;;;;4978482;28;20101;-73
2022/08/16 10:56:35;;;;;;;6.65;4.05;;;13.90;91.20;;;;;;4975678;28;20701;-73
2022/08/16 10:59:02;;;;;;;2.80;1.48;;;13.80;91.00;;;;;;4978329;28;20050;-72
2022/08/16 11:01:30;;;;;;;5.65;1.67;;;13.90;91.20;;;;;;4976810;28;20022;-75
2022/08/16 11:03:58;;;;;;;5.55;1.73;;;13.80;91.10;;;;;;4977523;28;20230;-74
2022/08/16 11:06:25;;;;;;;6.22;1.45;;;13.80;91.30;;;;;;4977563;28;20065;-76
2022/08/16 11:08:53;;;;;;;2.83;1.67;;;13.70;91.60;;;;;;4977659;28;20042;-74
2022/08/16 11:11:21;;;;;;;3.35;1.70;;;13.70;91.60;;;;;;4977945;28;20034;-76
2022/08/16 11:13:51;;;;;;;3.10;1.52;;;13.70;91.60;;;;;;4976795;28;20046;-72
2022/08/16 11:16:19;;;;;;;2.33;1.35;;;13.60;91.90;;;;;;4977875;28;20057;-73
2022/08/16 11:18:47;;;;;;;2.53;1.30;;;13.50;91.90;;;;;;4976064;28;20022;-73
2022/08/16 11:21:16;;;;;;;3.20;1.40;;;13.50;92.20;;;;;;4977250;28;20110;-75
2022/08/16 11:23:43;;;;;;;1.40;0.80;;;13.40;92.20;;;;;;4974519;28;20034;-70
2022/08/16 11:26:11;;;;;;;3.10;1.75;;;13.40;92.30;;;;;;4976548;28;20015;-75
2022/08/16 11:28:38;;;;;;;2.78;1.20;;;13.40;92.60;;;;;;4975681;28;20077;-73
2022/08/16 11:31:06;;;;;;;5.38;4.10;;;13.30;92.70;;;;;;4976991;28;20034;-76
2022/08/16 11:33:33;;;;;;;4.18;2.22;;;13.30;92.80;;;;;;4976920;28;20031;-76
2022/08/16 11:36:01;;;;;;;6.07;4.40;;;13.20;92.90;;;;;;4975345;28;20018;-75
2022/08/16 11:38:29;;;;;;;3.13;1.30;;;13.20;93.20;;;;;;4976584;28;20041;-73
2022/08/16 11:40:59;;;;;;;3.92;1.70;;;13.10;93.10;;;;;;4975998;28;20171;-77
2022/08/16 11:43:32;;;;;;;1.80;0.90;;;13.10;93.40;;;;;;4976957;28;20030;-78
2022/08/16 11:46:02;;;;;;;1.83;1.13;;;13.10;93.40;;;;;;4972706;28;20458;-76
2022/08/16 11:48:34;;;;;;;6.00;2.50;;;13.00;93.50;;;;;;4973590;28;20119;-74
2022/08/16 11:51:02;;;;;;;3.80;2.65;;;13.10;93.60;;;;;;4974387;28;20053;-73
2022/08/16 11:53:31;;;;;;;2.67;1.58;;;13.00;93.50;;;;;;4975456;28;20400;-74
2022/08/16 11:55:59;;;;;;;2.92;1.80;;;13.00;93.70;;;;;;4973630;28;20045;-77
2022/08/16 11:58:30;;;;;;;7.22;4.20;;;12.90;93.80;;;;;;4977088;28;20042;-73
2022/08/16 12:00:58;;;;;;;4.93;3.67;;;12.90;94.00;;;;;;4974959;28;20025;-73
2022/08/16 12:03:30;;;;;;;6.10;2.28;;;12.90;94.20;;;;;;4975886;28;20026;-71
2022/08/16 12:06:01;;;;;;;4.63;2.25;;;12.90;94.30;;;;;;4975690;28;20023;-73
2022/08/16 12:08:31;;;;;;;4.97;2.70;;;12.80;94.30;;;;;;4991680;28;20077;-73
2022/08/16 12:11:00;;;;;;;4.63;1.95;;;12.80;94.20;;;;;;4975806;28;20035;-72
2022/08/16 12:13:28;;;;;;;5.07;2.20;;;12.70;94.60;;;;;;4977003;28;20030;-73
2022/08/16 12:15:55;;;;;;;3.15;1.60;;;12.70;94.50;;;;;;4974531;28;20436;-74
2022/08/16 12:18:23;;;;;;;4.00;2.25;;;12.70;94.60;;;;;;4972190;28;20030;-73
2022/08/16 12:20:51;;;;;;;5.18;2.10;;;12.60;94.60;;;;;;4956016;28;20046;-75
2022/08/16 12:23:18;;;;;;;4.20;2.58;;;12.70;94.80;;;;;;4967811;28;20788;-75
2022/08/16 12:25:46;;;;;;;3.67;2.50;;;12.60;94.80;;;;;;4975815;28;20031;-74
2022/08/16 12:28:13;;;;;;;2.58;1.65;;;12.60;94.90;;;;;;4970551;28;20027;-76
2022/08/16 12:30:44;;;;;;;3.67;1.58;;;12.60;95.00;;;;;;4963678;28;20073;-75
2022/08/16 12:33:15;;;;;;;3.15;1.40;;;12.60;95.00;;;;;;4975811;28;20769;-76
2022/08/16 12:35:45;;;;;;;1.95;1.17;;;12.50;95.10;;;;;;4975455;28;20039;-75
2022/08/16 12:38:12;;;;;;;3.65;1.60;;;12.50;95.30;;;;;;4975225;28;20027;-74
2022/08/16 12:40:43;;;;;;;3.35;2.00;;;12.50;95.00;;;;;;4975887;28;20022;-76
2022/08/16 12:43:12;;;;;;;2.83;1.10;;;12.50;95.10;;;;;;4973924;28;20109;-74
2022/08/16 12:45:49;;;;;;;3.33;1.20;;;12.40;95.10;;;;;;4975029;28;20030;-74
2022/08/16 12:51:08;;;;;;;6.00;2.33;;;12.40;95.20;;;;;;4974369;28;20085;-73
2022/08/16 12:53:35;;;;;;;2.38;1.15;;;12.30;95.10;;;;;;4976308;28;20046;-74
2022/08/16 12:56:04;;;;;;;4.88;2.53;;;12.20;95.10;;;;;;4975533;28;20065;-77
2022/08/16 12:58:31;;;;;;;2.40;1.27;;;12.30;95.20;;;;;;4976373;28;20050;-77